メヘラーバード国際空港(テヘラン)の過去48時間の天気

メヘラーバード国際空港(テヘラン) (Tehran-Mehrabad)

現在時刻: 10/1 19:37 +0330 (10/1 16:07 UTC) 以下の時間は現地時間です。

過去48時間のMETAR気象情報
時間 風向 風速(m/s) 視程 気温(℃) 湿度(%) 気圧(hPa) 天気現象
1 19:30 南東 2 10km以上 23 19 1018
1 19:00 南南東 2 10km以上 23 19 1017
1 18:30 南東 3 10km以上 23 19 1017
1 18:00 南東 3 10km以上 24 18 1017
1 17:30 南東 3 10km以上 24 18 1017
1 17:00 3 10km以上 25 16 1017
1 16:30 2 10km以上 25 16 1017
1 16:00 南南西 4 10km以上 25 16 1017
1 15:30 南南西 4 10km以上 25 14 1017
1 15:00 南南東 2 10km以上 25 14 1017
1 14:30 3 10km以上 25 13 1017
1 14:00 西南西 2 10km以上 25 13 1017
1 13:30 西南西 5 10km以上 24 14 1017
1 13:00 東南東 3 10km以上 24 14 1017
1 12:30 南南西 4 10km以上 23 14 1018
1 12:00 南南東 3 10km以上 23 15 1018
1 11:30 南南東 4 10km以上 23 15 1018
1 11:00 3 10km以上 23 14 1018
1 10:30 2 10km以上 22 15 1019
1 10:00 南南東 2 10km以上 21 17 1019
1 09:30 3 10km以上 21 17 1019
1 09:00 西北西 2 10km以上 21 20 1019
1 08:30 静穏 0 10km以上 20 19 1018
1 08:00 静穏 0 10km以上 20 19 1018
1 07:30 北北西 2 10km以上 18 28 1018
1 07:00 北西 3 10km以上 17 29 1018
1 06:30 北北西 2 10km以上 16 29 1017
1 06:00 北北西 2 10km以上 16 31 1017
1 05:30 北西 2 10km以上 15 36 1017
1 05:00 北北西 2 10km以上 15 36 1017
1 04:30 静穏 0 10km以上 16 31 1017
1 04:00 北西 2 10km以上 16 34 1017
1 03:30 静穏 0 10km以上 17 34 1017
1 03:00 2 10km以上 17 32 1017
1 02:30 静穏 0 10km以上 18 28 1017
1 02:00 北北東 2 10km以上 18 30 1017
1 01:30 静穏 0 10km以上 18 26 1017
1 01:00 静穏 0 10km以上 18 24 1017
1 00:30 静穏 0 10km以上 18 24 1017
1 00:00 南南東 2 10km以上 19 21 1017
30 23:30 2 10km以上 20 18 1017
30 23:00 南東 3 10km以上 20 18 1017
30 22:30 静穏 0 10km以上 18 26 1017
30 22:00 静穏 0 10km以上 18 26 1017
30 21:30 静穏 0 10km以上 18 24 1017
30 21:00 静穏 0 10km以上 19 22 1017
30 20:30 静穏 0 10km以上 20 19 1016
30 20:00 南南東 2 10km以上 20 19 1016
30 19:30 南南東 2 10km以上 20 19 1016
30 19:00 南東 3 10km以上 20 19 1015
30 18:30 南東 3 10km以上 20 21 1015
30 18:00 南東 3 10km以上 21 18 1016
30 17:30 南南東 2 10km以上 21 18 1016
30 17:00 南南東 3 10km以上 21 17 1016
30 16:30 4 10km以上 21 17 1016
30 16:00 南南東 4 10km以上 21 17 1016
30 15:30 3 10km以上 22 17 1016
30 15:00 4 10km以上 22 16 1016
30 14:30 南南東 3 10km以上 22 16 1016
30 14:00 南西 3 10km以上 22 16 1016
30 13:30 3 10km以上 22 15 1017
30 13:00 南東 3 10km以上 21 16 1017
30 12:30 南南西 4 10km以上 21 17 1017
30 12:00 4 10km以上 21 17 1018
30 11:30 4 10km以上 20 17 1018
30 11:00 3 10km以上 20 14 1019
30 10:30 4 10km以上 19 17 1019
30 10:00 南東 3 10km以上 19 17 1019
30 09:30 3 10km以上 18 18 1019
30 09:00 南南東 3 10km以上 18 18 1019
30 08:30 3 10km以上 18 18 1019
30 08:00 南南東 2 10km以上 18 18 1019
30 07:30 南南西 2 10km以上 17 19 1019
30 07:00 西北西 2 10km以上 17 22 1019
30 06:30 北西 2 10km以上 15 25 1019
30 06:00 静穏 0 10km以上 15 27 1019
30 05:30 静穏 0 10km以上 15 27 1019
30 04:30 南東 4 10km以上 16 23 1019
30 04:00 東南東 6 10km以上 17 24 1019
30 03:30 南南東 3 10km以上 17 29 1019
30 02:30 南東 2 10km以上 18 34 1019
30 02:00 静穏 0 10km以上 18 37 1019
30 01:30 西 2 10km以上 18 39 1019
30 01:00 西 3 10km以上 18 39 1019
30 00:30 西南西 3 10km以上 18 39 1019
30 00:00 南西 2 10km以上 19 35 1020
29 23:30 南南東 2 10km以上 19 32 1019
29 23:00 2 10km以上 20 30 1020
29 22:30 2 10km以上 19 32 1020
29 22:00 南南東 2 10km以上 19 32 1020
29 21:30 南東 3 10km以上 19 32 1020
29 21:00 南東 4 10km以上 19 32 1021
29 20:30 南東 3 10km以上 20 30 1020
29 20:00 南南東 4 10km以上 20 32 1020
OIII 011600Z 13004KT 9999 FEW100 23/M02 Q1018 A3007 NOSIG
OIII 011530Z 15004KT 9999 FEW100 23/M02 Q1017 A3006
OIII 011500Z 14006KT 9999 FEW100 23/M02 Q1017 A3004 NOSIG
OIII 011430Z 13006KT CAVOK 24/M02 Q1017 A3004
OIII 011400Z 13006KT 9999 FEW040 24/M02 Q1017 A3003
OIII 011330Z 18006KT 9999 FEW040 25/M03 Q1017 A3003
OIII 011300Z 18004KT 9999 FEW040 25/M03 Q1017 A3003 NOSIG
OIII 011230Z 20008KT 9999 FEW040 25/M03 Q1017 A3003
OIII 011200Z 20008KT 9999 FEW040 25/M04 Q1017 A3003 NOSIG
OIII 011130Z 16004KT 9999 FEW040 25/M04 Q1017 A3004
OIII 011100Z 18006KT 9999 FEW040 25/M05 Q1017 A3004 NOSIG
OIII 011030Z 24004KT 9999 FEW040 25/M05 Q1017 A3004
OIII 011000Z 25010KT 9999 FEW040 24/M05 Q1017 A3005 NOSIG
OIII 010930Z 11006KT 9999 FEW040 24/M05 Q1017 A3006
OIII 010900Z 21008KT 9999 FEW040 23/M06 Q1018 A3007 NOSIG
OIII 010830Z 16006KT 9999 FEW040 23/M05 Q1018 A3007
OIII 010800Z 16008KT 9999 FEW040 23/M05 Q1018 A3008 NOSIG
OIII 010730Z 18006KT CAVOK 23/M06 Q1018 A3008
OIII 010700Z 17004KT CAVOK 22/M06 Q1019 A3009 NOSIG
OIII 010630Z 15004KT CAVOK 21/M05 Q1019 A3009
OIII 010600Z 18006KT CAVOK 21/M05 Q1019 A3009
OIII 010530Z 29004KT CAVOK 21/M03 Q1019 A3009
OIII 010500Z 00000KT CAVOK 20/M04 Q1018 A3009 NOSIG
OIII 010430Z 00000KT CAVOK 20/M04 Q1018 A3008
OIII 010400Z 34004KT CAVOK 18/M01 Q1018 A3007 NOSIG
OIII 010330Z 31006KT CAVOK 17/M01 Q1018 A3007
OIII 010300Z 33004KT 9999 FEW100 16/M02 Q1017 A3006 NOSIG
OIII 010230Z 33004KT 9999 FEW100 16/M01 Q1017 A3005
OIII 010200Z 32004KT 9999 FEW100 15/M00 Q1017 A3005 NOSIG
OIII 010130Z 33004KT 9999 FEW100 15/00 Q1017 A3005
OIII 010100Z 00000KT 9999 FEW100 16/M01 Q1017 A3004 NOSIG
OIII 010030Z 31004KT 9999 FEW100 16/M00 Q1017 A3004
OIII 010000Z 00000KT 9999 FEW100 17/01 Q1017 A3004 NOSIG
OIII 302330Z 35004KT 9999 SCT100 17/00 Q1017 A3004
OIII 302300Z 00000KT 9999 FEW040 SCT100 18/M01 Q1017 A3005 NOSIG
OIII 302230Z 03004KT 9999 FEW040 SCT100 18/00 Q1017 A3005
OIII 302200Z 00000KT 9999 SCT100 18/M02 Q1017 A3005 NOSIG
OIII 302130Z 00000KT 9999 SCT100 18/M03 Q1017 A3005
OIII 302100Z 00000KT 9999 SCT100 18/M03 Q1017 A3005 NOSIG
OIII 302030Z 16004KT 9999 SCT100 19/M04 Q1017 A3004
OIII 302000Z 09004KT 9999 FEW100 20/M05 Q1017 A3004 NOSIG
OIII 301930Z 13006KT 9999 FEW040 SCT100 20/M05 Q1017 A3004
OIII 301900Z 00000KT 9999 FEW040 SCT100 18/M02 Q1017 A3004 NOSIG
OIII 301830Z 00000KT 9999 FEW040 BKN100 18/M02 Q1017 A3004
OIII 301800Z 00000KT 9999 FEW040 SCT100 18/M03 Q1017 A3003 NOSIG
OIII 301730Z 00000KT 9999 FEW040 SCT100 19/M03 Q1017 A3003
OIII 301700Z 00000KT 9999 SCT100 20/M04 Q1016 A3002 NOSIG
OIII 301630Z 15004KT 9999 FEW100 SCT200 20/M04 Q1016 A3001
OIII 301600Z 15004KT 9999 FEW035 20/M04 Q1016 A3000
OIII 301530Z 13006KT 9999 FEW035 20/M04 Q1015 A3000
OIII 301500Z 13006KT 9999 FEW035 20/M03 Q1015 A2999
OIII 301430Z 13006KT 9999 FEW035 21/M04 Q1016 A3000
OIII 301400Z 16004KT 9999 FEW035 21/M04 Q1016 A3000 NOSIG
OIII 301330Z 15006KT 9999 FEW035 SCT090 21/M05 Q1016 A3000
OIII 301300Z 18008KT 9999 FEW035 SCT090 21/M05 Q1016 A3000
OIII 301230Z 16008KT 9999 FEW035CB SCT100 21/M05 Q1016 A3000
OIII 301200Z 19006KT 9999 FEW035 SCT100 22/M04 Q1016 A3000 NOSIG
OIII 301130Z 18008KT 9999 FEW035CB 22/M05 Q1016 A3000
OIII 301100Z 15006KT 9999 FEW035CB 22/M05 Q1016 A3001
OIII 301030Z 22006KT 9999 FEW035 22/M05 Q1016 A3002
OIII 301000Z 17006KT 9999 FEW035 22/M06 Q1017 A3003 NOSIG
OIII 300930Z 13006KT 9999 FEW035 21/M06 Q1017 A3004
OIII 300900Z 20008KT 9999 FEW035 21/M05 Q1017 A3006
OIII 300830Z 17008KT 9999 FEW035 21/M05 Q1018 A3007 NOSIG
OIII 300800Z 17008KT 9999 FEW035 20/M06 Q1018 A3008
OIII 300730Z 17006KT 9999 FEW035 SCT100 20/M08 Q1019 A3009
OIII 300700Z 18008KT 9999 FEW035 SCT100 19/M07 Q1019 A3010 NOSIG
OIII 300630Z 14006KT 9999 FEW035 SCT100 19/M07 Q1019 A3011
OIII 300600Z 17006KT 9999 FEW035 SCT100 18/M07 Q1019 A3012 NOSIG
OIII 300530Z 15006KT 9999 FEW035 SCT100 18/M07 Q1019 A3012
OIII 300500Z 19006KT 9999 FEW035 SCT100 18/M07 Q1019 A3012
OIII 300430Z 15004KT 9999 FEW040 18/M07 Q1019 A3011
OIII 300400Z 20004KT 9999 FEW040 17/M07 Q1019 A3011
OIII 300330Z 30004KT 9999 FEW040 SCT100 17/M05 Q1019 A3011
OIII 300300Z 31004KT 9999 FEW040 SCT100 15/M05 Q1019 A3010
OIII 300230Z 00000KT 9999 FEW040 15/M04 Q1019 A3010
OIII 300200Z 00000KT 9999 FEW040 SCT100 15/M04 Q1019 A3010 NOSIG
OIII 300100Z 13008KT 9999 FEW040 SCT100 16/M05 Q1019 A3011 NOSIG
OIII 300030Z 11012KT 9999 FEW040 SCT100 17/M04 Q1019 A3010
OIII 300000Z 15006KT 9999 FEW040 SCT100 17/M01 Q1019 A3010 NOSIG
OIII 292300Z 14004KT 9999 FEW040 SCT100 18/02 Q1019 A3011 NOSIG
OIII 292230Z 00000KT 9999 FEW040 SCT100 18/03 Q1019 A3011
OIII 292200Z 28004KT 9999 FEW040 SCT100 18/04 Q1019 A3011 NOSIG
OIII 292130Z 26006KT 9999 FEW040 SCT100 18/04 Q1019 A3011
OIII 292100Z 24006KT 9999 FEW040 SCT100 18/04 Q1019 A3011
OIII 292030Z 22004KT 9999 FEW040 SCT100 19/03 Q1020 A3012
OIII 292000Z 15004KT 9999 FEW040 SCT100 19/02 Q1019 A3012 NOSIG
OIII 291930Z 09004KT 9999 FEW040 SCT100 20/02 Q1020 A3013 NOSIG
OIII 291900Z 09004KT 9999 FEW040 SCT100 19/02 Q1020 A3013
OIII 291830Z 15004KT 9999 FEW040 SCT100 19/02 Q1020 A3014
OIII 291800Z 14006KT 9999 FEW040 SCT100 19/02 Q1020 A3014
OIII 291730Z 13008KT 9999 FEW040 SCT100 19/02 Q1021 A3014
OIII 291700Z 13006KT 9999 FEW040 SCT100 BKN180 20/02 Q1020 A3014 NOSIG
OIII 291630Z 15008KT 9999 FEW040 SCT100 BKN180 20/03 Q1020 A3013